• Join FlightAware (Why Join?)
  • Login
  • US Flag 
01:01AM EDT


 

Airport Tracker/Info


-or-


 

Live Flight TrackerFlight Track Log ✈ UAL4180 ✈ 15-Apr-2013 ✈ KCRP - KIAH

Flight Track Log - Related Links

Times and Time Zones

All times are in EDT time to prevent confusion due to time zone crossing. See the UAL4180 flight status page for this flight to view local times or setup timezone preferences in your user account.

Time Position Orientation Groundspeed Altitude Reporting Facility
EDT Latitude Longitude Course Direction KTS MPH feet Rate Location/Type
08:13AM 27.7603 -97.4950 41° Northeast 144 166 500  Level Houston Center
08:14AM 27.7408 -97.4714 133° Southeast 157 181 1,900 2,100 Climbing Houston Center
08:15AM 27.7381 -97.4331 95° East 203 234 3,300 1,980 Climbing Houston Center
08:15AM 27.7675 -97.4253 13° North 228 262 3,900 1,560 Climbing Houston Center
08:16AM 27.8056 -97.4094 20° North 240 276 4,900 1,860 Climbing Houston Center
08:17AM 27.9471 -97.3923 35° Northeast  Level FlightAware Approximate
08:17AM 27.8794 -97.3853 16° North 260 299 7,200  Level Houston Center
08:18AM 27.9971 -97.3523 35° Northeast  Level FlightAware Approximate
08:18AM 27.9525 -97.3597 17° North 268 308 9,300  Level Houston Center
08:19AM 28.0432 -97.3068 41° Northeast  Level FlightAware Approximate
08:19AM 28.0289 -97.3275 20° North 279 321 10,800  Level Houston Center
08:20AM 28.1200 -97.2469 38° Northeast 334 384 11,800 900 Climbing Houston Center
08:21AM 28.2042 -97.1853 33° Northeast 356 410 12,700 1,020 Climbing Houston Center
08:22AM 28.2922 -97.1186 34° Northeast 374 430 13,900 1,080 Climbing Houston Center
08:23AM 28.3814 -97.0514 34° Northeast 382 440 15,000 1,020 Climbing Houston Center
08:24AM 28.4717 -96.9847 33° Northeast 386 444 16,100 960 Climbing Houston Center
08:25AM 28.5758 -96.9533 15° North 388 447 17,000 420 Climbing Houston Center
08:26AM 28.6825 -96.9197 15° North 393 452 17,000  Level Houston Center
08:27AM 28.7900 -96.8861 15° North 397 457 17,000  Level Houston Center
08:28AM 28.9206 -96.8450 15° North 402 463 17,000  Level Houston Center
08:29AM 29.0239 -96.8111 16° North 398 458 17,000  Level Houston Center
08:30AM 29.1233 -96.7781 16° North 385 443 17,000  Level Houston Center
08:31AM 29.2208 -96.7458 16° North 374 430 17,000  Level Houston Center
08:32AM 29.3186 -96.7069 19° North 385 443 17,000  Level Houston Center
08:33AM 29.3692 -96.6392 49° Northeast 394 453 17,000  Level Houston Center
08:33AM 29.3806 -96.6083 67° East 392 451 17,000 -600 Level Houston Center
08:34AM 29.4350 -96.4628 67° East 414 476 16,200 -1,740 Descending Houston Center
08:35AM 29.4817 -96.3425 66° East 414 476 13,500 -2,580 Descending Houston Center
08:35AM 29.4928 -96.3092 69° East 389 448 12,900 -1,380 Descending Houston Center
08:36AM 29.5194 -96.2378 67° East 363 418 12,100 -540 Descending Houston Center
08:37AM 29.5594 -96.1372 65° Northeast 349 402 12,000 -540 Descending Houston Center
08:38AM 29.6089 -96.0392 60° Northeast 355 409 11,000 -1,020 Descending Houston Center
08:39AM 29.6625 -95.9367 59° Northeast 351 404 10,000 -780 Descending Houston Center
08:40AM 29.6800 -95.9017 60° Northeast 334 384 10,000  Level Houston Center
08:40AM 29.7081 -95.8439 61° Northeast 335 386 10,000  Level Houston Center
08:41AM 29.7558 -95.7497 60° Northeast 340 391 10,000 -540 Level Houston Center
08:42AM 29.7969 -95.6664 60° Northeast 301 346 8,900 -1,560 Descending Houston Center
08:44AM 29.8475 -95.5669 60° Northeast 284 327 6,700 -1,440 Descending Houston Center
08:44AM 29.8753 -95.5100 61° Northeast 279 321 6,000 -360 Descending Houston Center
08:45AM 29.8961 -95.4100 76° East 275 316 6,000  Level Houston Center
08:47AM 29.8961 -95.3211 90° East 276 318 6,000  Level Houston Center
08:48AM 29.8967 -95.2325 90° East 275 316 6,000 -420 Level Houston Center
08:49AM 29.8978 -95.1444 89° East 274 315 5,200 -1,200 Descending Houston Center
08:50AM 29.8975 -95.0597 90° East 259 298 3,700 -1,260 Descending Houston Center
08:51AM 29.9011 -94.9628 88° East 264 304 2,600 -840 Descending Houston Center
08:52AM 29.9572 -94.9558 North 278 320 2,000 -300 Descending Houston Center
08:53AM 29.9792 -95.0292 289° West 252 290 2,000  Level Houston Center
08:54AM 29.9786 -95.1225 270° West 246 283 2,000  Level Houston Center